Time;durP1;ratioP1;P1;durP2;ratioP2;P2;SDS_P1;SDS_P2;PMS_P1;PMS_P2;Temp;Humidity;BMP_temperature;BMP_pressure;BME280_temperature;BME280_humidity;BME280_pressure;Samples;Min_cycle;Max_cycle;Signal;HPM_P1;HPM_P2
2022/04/05 00:00:36;;;;;;;4.68;1.70;;;;;;;3.79;70.46;97947.91;2089653;28;20287;-70
2022/04/05 00:01:38;;;;;;;5.22;1.70;;;;;;;3.78;69.64;97935.59;2081562;28;20303;-69
2022/04/05 00:02:43;;;;;;;4.10;1.60;;;;;;;3.93;69.58;97942.28;2089596;28;20306;-69
2022/04/05 00:03:45;;;;;;;2.70;1.35;;;;;;;3.83;69.57;97940.78;2080993;28;20299;-69
2022/04/05 00:04:49;;;;;;;3.90;1.40;;;;;;;3.85;69.15;97946.59;2074090;28;20293;-69
2022/04/05 00:05:53;;;;;;;10.60;1.50;;;;;;;3.86;68.62;97932.09;2073212;28;20765;-69
2022/04/05 00:06:58;;;;;;;5.97;1.92;;;;;;;3.52;68.91;97941.09;2065521;28;20286;-69
2022/04/05 00:08:00;;;;;;;7.00;2.22;;;;;;;3.50;69.50;97938.75;2082569;28;20291;-68
2022/04/05 00:09:05;;;;;;;8.00;1.60;;;;;;;3.41;69.64;97941.47;2089711;28;20295;-69
2022/04/05 00:10:09;;;;;;;9.35;2.20;;;;;;;3.36;70.12;97941.63;2088867;28;20283;-70
2022/04/05 00:11:13;;;;;;;10.90;2.03;;;;;;;3.47;70.51;97934.06;2080726;28;20362;-69
2022/04/05 00:12:20;;;;;;;6.45;1.50;;;;;;;3.45;70.17;97951.53;2074956;28;20788;-70
2022/04/05 00:13:28;;;;;;;7.43;1.73;;;;;;;3.50;70.10;97957.44;2093861;28;20282;-69
2022/04/05 00:14:36;;;;;;;;;;;;;;;3.49;70.33;97952.44;2089265;28;20393;-69
2022/04/05 00:15:39;;;;;;;10.88;1.77;;;;;;;3.51;69.66;97959.03;2089817;28;20305;-69
2022/04/05 00:16:41;;;;;;;10.45;2.42;;;;;;;3.50;69.95;97951.31;2096669;28;20291;-68
2022/04/05 00:17:45;;;;;;;10.93;1.60;;;;;;;3.58;69.71;97953.97;2086586;28;20640;-69
2022/04/05 00:18:46;;;;;;;6.65;1.50;;;;;;;3.57;69.34;97952.41;2080878;28;20292;-70
2022/04/05 00:19:51;;;;;;;8.90;1.77;;;;;;;3.59;70.09;97960.88;2065429;28;20294;-69
2022/04/05 00:20:56;;;;;;;7.75;1.73;;;;;;;3.72;69.86;97952.94;2065544;28;20300;-69
2022/04/05 00:21:59;;;;;;;12.18;1.92;;;;;;;3.62;69.78;97954.88;2065813;28;20289;-70
2022/04/05 00:23:08;;;;;;;8.90;2.00;;;;;;;3.59;70.03;97960.09;2082476;28;20284;-69
2022/04/05 00:24:11;;;;;;;11.57;1.83;;;;;;;3.47;70.19;97955.44;2089797;28;20298;-68
2022/04/05 00:25:24;;;;;;;13.45;1.50;;;;;;;3.39;70.61;97951.69;2082127;28;20351;-69
2022/04/05 00:26:29;;;;;;;8.52;1.83;;;;;;;3.36;70.18;97957.69;2092971;28;20386;-69
2022/04/05 00:27:32;;;;;;;10.40;1.80;;;;;;;3.35;69.70;97958.00;2105930;28;20270;-68
2022/04/05 00:28:36;;;;;;;8.60;1.70;;;;;;;3.40;69.92;97955.94;2080828;28;20614;-69
2022/04/05 00:29:38;;;;;;;13.05;2.25;;;;;;;3.19;69.62;97963.88;2073799;28;20859;-69
2022/04/05 00:30:41;;;;;;;9.93;2.17;;;;;;;3.16;70.10;97959.16;2081355;28;20304;-69
2022/04/05 00:31:42;;;;;;;9.43;1.98;;;;;;;3.15;70.24;97965.59;2089129;28;20770;-68
2022/04/05 00:32:45;;;;;;;10.30;1.98;;;;;;;3.23;70.20;97963.25;2078014;28;21031;-69
2022/04/05 00:33:51;;;;;;;12.40;1.80;;;;;;;3.34;69.95;97959.09;2081353;28;20280;-69
2022/04/05 00:34:58;;;;;;;10.15;1.83;;;;;;;3.24;70.75;97962.91;2088916;28;20303;-69
2022/04/05 00:36:03;;;;;;;8.82;1.83;;;;;;;3.41;69.89;97959.41;2090125;28;20291;-69
2022/04/05 00:37:05;;;;;;;15.63;1.90;;;;;;;3.58;69.63;97974.56;2072691;28;20811;-69
2022/04/05 00:38:14;;;;;;;11.18;2.25;;;;;;;3.72;68.95;97969.00;2065499;28;20316;-69
2022/04/05 00:39:19;;;;;;;13.23;1.80;;;;;;;3.72;68.99;97952.94;2066172;28;20309;-69
2022/04/05 00:40:25;;;;;;;12.05;1.88;;;;;;;3.83;68.40;97962.19;2084620;28;20295;-69
2022/04/05 00:41:29;;;;;;;8.23;1.73;;;;;;;3.80;68.37;97958.25;2097308;28;20305;-69
2022/04/05 00:42:36;;;;;;;6.00;1.40;;;;;;;3.84;68.39;97961.06;2090678;28;20303;-69
2022/04/05 00:43:40;;;;;;;7.03;1.58;;;;;;;3.82;67.98;97976.69;2098718;28;20309;-69
2022/04/05 00:44:43;;;;;;;6.15;1.60;;;;;;;3.65;67.63;97958.81;2104880;28;20282;-69
2022/04/05 00:45:49;;;;;;;8.75;1.40;;;;;;;3.64;68.13;97962.59;2105581;28;20290;-70
2022/04/05 00:46:55;;;;;;;12.55;2.10;;;;;;;3.37;68.15;97942.41;2104701;28;20285;-69
2022/04/05 00:47:57;;;;;;;10.27;1.60;;;;;;;3.18;69.23;97956.94;2106031;28;20619;-70
2022/04/05 00:49:01;;;;;;;8.70;1.50;;;;;;;2.91;69.62;97968.81;2097025;28;20287;-69
2022/04/05 00:50:06;;;;;;;7.20;1.58;;;;;;;3.14;69.83;97942.66;2089395;28;20272;-70
2022/04/05 00:51:12;;;;;;;7.90;1.25;;;;;;;3.35;69.03;97964.13;2097228;28;20283;-69
2022/04/05 00:52:16;;;;;;;11.57;1.80;;;;;;;3.36;68.85;97965.69;2097251;28;20294;-69
2022/04/05 00:53:19;;;;;;;8.70;1.80;;;;;;;3.42;68.75;97961.75;2096923;28;20294;-69
2022/04/05 00:54:25;;;;;;;9.63;1.80;;;;;;;3.43;68.80;97973.22;2105197;28;20286;-69
2022/04/05 00:55:32;;;;;;;7.80;1.80;;;;;;;3.08;69.34;97970.66;2096690;28;20299;-69
2022/04/05 00:56:39;;;;;;;11.20;1.90;;;;;;;3.03;69.17;97970.03;2091170;28;20299;-70
2022/04/05 00:57:44;;;;;;;11.57;2.08;;;;;;;3.25;68.98;97971.69;2105599;28;20282;-69
2022/04/05 00:58:56;;;;;;;13.07;2.40;;;;;;;3.35;68.58;97982.06;2105456;28;20278;-69
2022/04/05 01:00:05;;;;;;;9.75;1.85;;;;;;;3.53;68.74;97974.75;2105764;28;20619;-69
2022/04/05 01:01:15;;;;;;;13.68;2.13;;;;;;;3.71;68.03;97978.13;2105953;28;20289;-70
2022/04/05 01:02:28;;;;;;;8.70;2.03;;;;;;;3.58;68.06;97975.34;2105587;28;20035;-69
2022/04/05 01:03:32;;;;;;;6.40;1.58;;;;;;;3.79;67.34;97977.31;2090423;28;20287;-69
2022/04/05 01:04:36;;;;;;;11.85;1.65;;;;;;;3.72;66.88;97975.13;2089832;28;20295;-69
2022/04/05 01:05:46;;;;;;;4.40;1.20;;;;;;;3.53;67.46;97964.06;2097211;28;20282;-69
2022/04/05 01:06:53;;;;;;;8.88;1.83;;;;;;;3.32;68.40;97980.03;2096242;28;20279;-69
2022/04/05 01:08:02;;;;;;;10.50;2.20;;;;;;;3.52;68.93;97976.66;2088813;28;20291;-69
2022/04/05 01:09:08;;;;;;;12.55;1.77;;;;;;;3.38;68.67;97970.75;2090716;28;20756;-69
2022/04/05 01:10:14;;;;;;;15.07;1.95;;;;;;;3.33;68.38;97976.25;2089473;28;20291;-69
2022/04/05 01:11:16;;;;;;;9.18;1.75;;;;;;;3.36;67.86;97981.72;2066363;28;20293;-69
2022/04/05 01:12:18;;;;;;;9.98;1.73;;;;;;;3.52;67.72;97975.88;2066741;28;20285;-69
2022/04/05 01:13:21;;;;;;;9.82;2.03;;;;;;;3.41;68.04;97984.25;2084553;28;20672;-68
2022/04/05 01:14:25;;;;;;;9.70;2.05;;;;;;;3.41;67.99;97986.13;2077496;28;20327;-69
2022/04/05 01:15:31;;;;;;;9.20;1.80;;;;;;;3.44;67.94;97980.16;2066407;28;20297;-68
2022/04/05 01:16:36;;;;;;;11.35;1.80;;;;;;;3.43;67.39;97983.91;2076455;28;20292;-68
2022/04/05 01:17:39;;;;;;;11.50;2.08;;;;;;;3.39;68.21;97983.00;2082110;28;20291;-68
2022/04/05 01:18:47;;;;;;;8.88;1.77;;;;;;;3.16;68.85;97990.47;2084256;28;20275;-69
2022/04/05 01:19:52;;;;;;;10.55;2.65;;;;;;;3.23;68.55;97989.97;2090051;28;20366;-68
2022/04/05 01:20:56;;;;;;;13.07;1.80;;;;;;;3.44;67.89;97990.84;2090399;28;20770;-68
2022/04/05 01:21:59;;;;;;;9.65;2.10;;;;;;;3.42;67.78;97987.69;2098323;28;20660;-68
2022/04/05 01:23:01;;;;;;;12.50;2.95;;;;;;;3.49;67.78;97992.53;2106629;28;20273;-68
2022/04/05 01:24:13;;;;;;;8.98;2.30;;;;;;;3.37;67.33;97985.19;2098717;28;20599;-68
2022/04/05 01:25:21;;;;;;;12.80;2.33;;;;;;;3.46;67.56;97977.91;2098792;28;20271;-68
2022/04/05 01:26:23;;;;;;;9.43;1.90;;;;;;;3.34;67.47;97975.91;2098115;28;20297;-68
2022/04/05 01:27:27;;;;;;;11.70;2.47;;;;;;;3.35;67.62;97977.50;2082484;28;20280;-68
2022/04/05 01:28:34;;;;;;;13.57;2.08;;;;;;;3.38;67.36;97981.44;2082326;28;20280;-68
2022/04/05 01:29:37;;;;;;;10.93;1.92;;;;;;;3.35;66.96;97979.41;2090492;28;20275;-68
2022/04/05 01:30:43;;;;;;;15.98;3.35;;;;;;;3.39;67.23;97983.78;2089992;28;20633;-69
2022/04/05 01:31:54;;;;;;;10.27;2.45;;;;;;;3.44;66.53;97977.47;2082286;28;20295;-69
2022/04/05 01:32:59;;;;;;;14.48;2.08;;;;;;;3.32;67.15;97977.38;2082872;28;20299;-70
2022/04/05 01:34:02;;;;;;;10.50;2.50;;;;;;;3.38;66.36;97981.44;2082193;28;20284;-69
2022/04/05 01:35:09;;;;;;;12.50;2.45;;;;;;;3.51;66.42;97980.44;2074413;28;20277;-69
2022/04/05 01:36:25;;;;;;;12.25;2.20;;;;;;;3.23;66.90;97984.63;2091300;28;20287;-69
2022/04/05 01:37:28;;;;;;;12.70;2.60;;;;;;;3.32;66.53;97985.38;2102787;28;20297;-69
2022/04/05 01:38:36;;;;;;;11.50;2.05;;;;;;;3.30;66.53;97979.56;2090378;28;20679;-69
2022/04/05 01:39:40;;;;;;;9.80;2.35;;;;;;;3.37;66.36;97985.97;2090409;28;20613;-69
2022/04/05 01:40:44;;;;;;;10.73;2.83;;;;;;;3.53;66.45;97993.47;2090173;28;20282;-69
2022/04/05 01:41:50;;;;;;;14.10;2.70;;;;;;;3.45;66.31;97988.94;2073993;28;20296;-69
2022/04/05 01:42:52;;;;;;;10.35;2.10;;;;;;;3.35;66.71;97976.72;2075428;28;20276;-69
2022/04/05 01:43:58;;;;;;;16.30;2.25;;;;;;;3.39;66.27;97991.78;2083307;28;20304;-69
2022/04/05 01:45:04;;;;;;;9.55;2.03;;;;;;;3.36;66.45;97989.75;2081827;28;20284;-68
2022/04/05 01:46:06;;;;;;;10.48;1.90;;;;;;;3.23;66.01;97996.09;2067029;28;20286;-70
2022/04/05 01:47:14;;;;;;;4.90;1.23;;;;;;;2.95;66.58;97998.34;2073868;28;20284;-69
2022/04/05 01:48:19;;;;;;;12.00;1.42;;;;;;;3.08;66.95;97989.34;2082671;28;20655;-69
2022/04/05 01:49:24;;;;;;;10.45;2.13;;;;;;;3.28;65.46;97993.25;2065595;28;20808;-70
2022/04/05 01:50:28;;;;;;;10.98;2.28;;;;;;;3.19;65.94;97997.84;2068877;28;20300;-70
2022/04/05 01:51:37;;;;;;;10.35;1.77;;;;;;;3.20;65.85;97994.84;2081791;28;20295;-70
2022/04/05 01:52:43;;;;;;;10.70;1.85;;;;;;;3.32;65.38;98006.75;2076761;28;20280;-70
2022/04/05 01:53:47;;;;;;;9.00;1.65;;;;;;;3.20;65.25;97997.50;2082156;28;20653;-70
2022/04/05 01:54:50;;;;;;;16.05;1.85;;;;;;;3.09;64.92;98004.31;2090137;28;20291;-70
2022/04/05 01:55:52;;;;;;;12.27;2.03;;;;;;;3.06;65.09;98009.47;2081957;28;20287;-70
2022/04/05 01:56:54;;;;;;;8.30;1.45;;;;;;;2.85;66.19;98001.34;2065876;28;20286;-70
2022/04/05 01:57:59;;;;;;;15.10;2.15;;;;;;;2.90;65.88;98009.19;2065667;28;20297;-70
2022/04/05 01:59:02;;;;;;;9.25;1.38;;;;;;;3.10;65.35;98016.56;2082085;28;20284;-70
2022/04/05 02:00:14;;;;;;;9.60;1.52;;;;;;;3.07;65.81;98014.53;2081865;28;20288;-70
2022/04/05 02:01:15;;;;;;;13.57;1.70;;;;;;;3.13;65.32;98007.91;2076591;28;20796;-69
2022/04/05 02:02:18;;;;;;;10.43;1.58;;;;;;;3.03;65.34;98007.44;2081942;28;20292;-69
2022/04/05 02:03:28;;;;;;;10.15;1.73;;;;;;;3.14;65.70;98012.13;2081986;28;20296;-71
2022/04/05 02:04:36;;;;;;;7.65;1.20;;;;;;;3.05;65.50;97990.00;2075898;28;20291;-70
2022/04/05 02:05:38;;;;;;;9.90;1.60;;;;;;;3.01;65.41;98009.66;2081083;28;20284;-70
2022/04/05 02:06:44;;;;;;;9.77;1.70;;;;;;;2.84;65.98;98007.78;2089264;28;20291;-71
2022/04/05 02:07:46;;;;;;;9.63;1.90;;;;;;;3.01;65.64;98007.00;2089826;28;20279;-70
2022/04/05 02:08:49;;;;;;;9.13;2.22;;;;;;;3.22;64.94;98013.25;2073826;28;20289;-71
2022/04/05 02:09:53;;;;;;;12.02;2.80;;;;;;;3.31;65.06;98007.84;2074602;28;20779;-70
2022/04/05 02:10:54;;;;;;;13.68;2.20;;;;;;;3.06;65.62;98012.16;2081539;28;20279;-70
2022/04/05 02:12:00;;;;;;;11.45;2.58;;;;;;;3.07;65.75;98019.09;2073868;28;20621;-70
2022/04/05 02:13:29;;;;;;;5.10;1.75;;;;;;;3.39;64.91;98012.41;2079838;28;20298;-71
2022/04/05 02:14:33;;;;;;;16.02;2.30;;;;;;;3.48;64.85;98001.69;2088663;28;20291;-70
2022/04/05 02:15:40;;;;;;;10.50;2.40;;;;;;;3.33;64.72;98000.31;2074156;28;20301;-70
2022/04/05 02:16:47;;;;;;;9.32;2.22;;;;;;;3.11;64.82;98009.31;2068027;28;20649;-70
2022/04/05 02:17:51;;;;;;;8.30;1.90;;;;;;;3.31;64.94;98000.59;2085695;28;20306;-70
2022/04/05 02:19:01;;;;;;;9.88;2.70;;;;;;;3.28;65.17;98003.13;2082210;28;20656;-69
2022/04/05 02:20:05;;;;;;;14.32;2.25;;;;;;;2.99;66.02;98007.28;2075540;28;20632;-70
2022/04/05 02:21:13;;;;;;;11.85;2.47;;;;;;;3.14;65.30;98014.81;2082788;28;20343;-70
2022/04/05 02:22:18;;;;;;;14.88;2.22;;;;;;;3.31;64.61;98010.53;2097615;28;20278;-70
2022/04/05 02:23:25;;;;;;;9.90;1.95;;;;;;;3.26;65.19;98014.16;2081857;28;20797;-71
2022/04/05 02:24:43;;;;;;;13.95;2.28;;;;;;;3.38;64.37;98008.16;2087234;28;20646;-70
2022/04/05 02:25:50;;;;;;;11.82;1.98;;;;;;;3.46;64.50;98014.56;2071433;28;20048;-69
2022/04/05 02:26:57;;;;;;;11.07;1.70;;;;;;;3.56;63.70;98006.97;2067424;28;20316;-70
2022/04/05 02:28:05;;;;;;;6.15;1.55;;;;;;;3.20;64.25;98007.41;2068323;28;20042;-69
2022/04/05 02:29:15;;;;;;;12.63;3.00;;;;;;;2.94;64.96;98005.59;2058780;28;20309;-71
2022/04/05 02:30:20;;;;;;;10.50;2.15;;;;;;;2.95;65.10;98009.81;2070089;28;20058;-70
2022/04/05 02:31:29;;;;;;;12.10;2.30;;;;;;;3.15;64.99;98008.34;2089375;28;20292;-69
2022/04/05 02:32:36;;;;;;;8.45;1.48;;;;;;;3.03;64.91;98012.78;2082363;28;20296;-70
2022/04/05 02:33:38;;;;;;;9.95;1.70;;;;;;;3.22;65.10;98015.09;2089467;28;20296;-69
2022/04/05 02:34:49;;;;;;;9.93;1.92;;;;;;;3.40;64.15;98019.31;2082099;28;20332;-70
2022/04/05 02:35:52;;;;;;;4.88;1.83;;;;;;;3.42;64.19;98014.44;2083949;28;20291;-69
2022/04/05 02:37:00;;;;;;;7.88;2.03;;;;;;;3.15;64.64;98005.69;2081864;28;20932;-69
2022/04/05 02:38:05;;;;;;;10.00;1.92;;;;;;;3.10;64.48;98003.19;2083100;28;20307;-69
2022/04/05 02:39:12;;;;;;;8.05;1.77;;;;;;;3.19;64.82;98017.31;2082620;28;20299;-72
2022/04/05 02:40:19;;;;;;;9.48;2.47;;;;;;;3.36;63.96;98013.81;2082944;28;20283;-72
2022/04/05 02:41:27;;;;;;;6.15;2.03;;;;;;;3.14;64.09;98019.38;2091251;28;20791;-73
2022/04/05 02:42:31;;;;;;;11.20;2.03;;;;;;;3.14;64.97;98020.16;2089570;28;20056;-72
2022/04/05 02:43:37;;;;;;;13.43;2.38;;;;;;;2.93;65.28;98013.91;2089784;28;20288;-73
2022/04/05 02:44:39;;;;;;;14.88;2.40;;;;;;;2.73;65.45;98015.34;2082798;28;20288;-72
2022/04/05 02:45:41;;;;;;;9.65;1.85;;;;;;;2.97;65.21;98020.19;2090031;28;20326;-71
2022/04/05 02:46:46;;;;;;;12.38;1.90;;;;;;;3.09;65.25;98020.34;2088683;28;20322;-73
2022/04/05 02:47:50;;;;;;;9.73;1.80;;;;;;;3.22;64.55;98012.44;2074356;28;20293;-69
2022/04/05 02:48:55;;;;;;;10.88;1.90;;;;;;;3.25;63.82;98030.50;2073592;28;20284;-71
2022/04/05 02:50:07;;;;;;;10.43;1.83;;;;;;;3.23;64.21;98014.03;2061216;28;20667;-71
2022/04/05 02:51:14;;;;;;;12.23;2.23;;;;;;;3.13;64.46;98031.97;2061137;28;20286;-72
2022/04/05 02:52:17;;;;;;;14.30;2.85;;;;;;;3.30;64.26;98028.44;2082395;28;20656;-72
2022/04/05 02:53:27;;;;;;;10.25;2.25;;;;;;;3.28;64.18;98038.69;2073006;28;20307;-71
2022/04/05 02:54:32;;;;;;;11.10;1.95;;;;;;;3.44;64.19;98022.94;2059286;28;20286;-71
2022/04/05 02:55:42;;;;;;;9.68;1.90;;;;;;;3.34;63.37;98028.59;2061042;28;20293;-72
2022/04/05 02:56:48;;;;;;;10.23;2.17;;;;;;;3.20;63.36;98026.13;2051184;28;20307;-72
2022/04/05 02:57:56;;;;;;;13.57;2.35;;;;;;;2.74;63.96;98033.69;2073882;28;20315;-74
2022/04/05 02:59:06;;;;;;;8.52;1.70;;;;;;;2.84;65.16;98037.16;2075772;28;20292;-72
2022/04/05 03:00:17;;;;;;;11.57;2.08;;;;;;;3.05;64.65;98027.41;2067751;28;20289;-71
2022/04/05 03:01:42;;;;;;;;;;;;;;;3.17;63.88;98035.56;2089101;28;20294;-71
2022/04/05 03:02:48;;;;;;;14.73;1.83;;;;;;;3.06;64.20;98026.31;2081235;28;19921;-71
2022/04/05 03:03:52;;;;;;;12.20;2.05;;;;;;;2.98;63.88;98032.44;2074317;28;20276;-71
2022/04/05 03:04:54;;;;;;;11.55;2.35;;;;;;;3.03;64.45;98034.97;2073323;28;20300;-71
2022/04/05 03:05:59;;;;;;;12.55;2.47;;;;;;;3.15;64.21;98032.41;2065372;28;20285;-70
2022/04/05 03:07:03;;;;;;;11.40;2.70;;;;;;;3.12;64.90;98030.38;2080679;28;20275;-71
2022/04/05 03:08:07;;;;;;;13.18;2.03;;;;;;;3.06;64.72;98029.00;2089078;28;20605;-71
2022/04/05 03:09:12;;;;;;;9.63;2.10;;;;;;;3.08;64.87;98037.44;2082287;28;20283;-70
2022/04/05 03:10:16;;;;;;;13.05;1.88;;;;;;;3.25;64.58;98041.19;2088686;28;20280;-70
2022/04/05 03:11:26;;;;;;;12.80;1.98;;;;;;;2.94;64.77;98031.53;2089117;28;20284;-73
2022/04/05 03:12:32;;;;;;;9.68;2.17;;;;;;;3.08;64.86;98029.44;2082918;28;20360;-72
2022/04/05 03:13:35;;;;;;;9.88;2.28;;;;;;;3.29;64.59;98036.81;2090386;28;20298;-71
2022/04/05 03:14:39;;;;;;;12.32;2.33;;;;;;;3.25;64.75;98035.84;2089230;28;20287;-70
2022/04/05 03:15:44;;;;;;;16.73;3.13;;;;;;;3.12;64.52;98032.25;2065553;28;20381;-71
2022/04/05 03:16:49;;;;;;;12.45;3.47;;;;;;;3.25;64.40;98031.31;2066534;28;20281;-70
2022/04/05 03:17:58;;;;;;;20.45;3.92;;;;;;;3.34;64.39;98032.03;2079840;28;20280;-71
2022/04/05 03:19:02;;;;;;;13.02;3.45;;;;;;;3.32;64.28;98036.16;2065691;28;20290;-71
2022/04/05 03:20:05;;;;;;;16.98;3.88;;;;;;;3.15;64.27;98031.63;2075589;28;20277;-71
2022/04/05 03:21:14;;;;;;;20.02;3.95;;;;;;;3.29;64.48;98031.47;2096937;28;20287;-70
2022/04/05 03:22:17;;;;;;;17.13;3.70;;;;;;;3.23;64.13;98036.19;2088445;28;20276;-70
2022/04/05 03:23:21;;;;;;;20.27;4.15;;;;;;;3.47;63.94;98035.66;2081101;28;20348;-70
2022/04/05 03:24:23;;;;;;;17.45;4.22;;;;;;;3.32;64.29;98038.84;2073998;28;20292;-70
2022/04/05 03:25:35;;;;;;;14.38;3.83;;;;;;;3.05;65.30;98035.41;2089679;28;20659;-71
2022/04/05 03:26:37;;;;;;;14.45;3.15;;;;;;;2.88;64.82;98038.91;2089062;28;20279;-71
2022/04/05 03:27:47;;;;;;;13.27;2.70;;;;;;;3.07;64.80;98041.25;2074174;28;20281;-71
2022/04/05 03:28:57;;;;;;;14.95;3.83;;;;;;;3.03;64.56;98040.31;2084663;28;20280;-71
2022/04/05 03:30:12;;;;;;;16.15;2.90;;;;;;;2.92;64.96;98034.50;2091147;28;20288;-71
2022/04/05 03:31:14;;;;;;;11.30;2.38;;;;;;;3.05;65.10;98040.75;2081218;28;20278;-71
2022/04/05 03:32:21;;;;;;;14.32;3.10;;;;;;;3.15;64.90;98043.09;2074008;28;20333;-72
2022/04/05 03:33:29;;;;;;;13.85;3.28;;;;;;;3.06;65.42;98037.00;2089879;28;20275;-71
2022/04/05 03:34:36;;;;;;;16.02;3.28;;;;;;;3.00;65.29;98035.59;2088420;28;20822;-71
2022/04/05 03:35:38;;;;;;;15.57;2.65;;;;;;;3.13;65.05;98026.63;2073540;28;20305;-71
2022/04/05 03:36:43;;;;;;;8.93;2.50;;;;;;;3.14;64.71;98035.41;2065561;28;20679;-70
2022/04/05 03:37:53;;;;;;;12.38;3.28;;;;;;;3.15;65.00;98029.72;2073019;28;20296;-71
2022/04/05 03:38:55;;;;;;;13.60;3.08;;;;;;;2.94;64.96;98026.19;2067521;28;20289;-71
2022/04/05 03:39:57;;;;;;;16.55;3.13;;;;;;;2.80;65.43;98031.66;2073286;28;20054;-71
2022/04/05 03:41:00;;;;;;;21.65;3.22;;;;;;;2.98;65.40;98032.44;2065102;28;20300;-70
2022/04/05 03:42:05;;;;;;;17.17;2.80;;;;;;;3.05;65.18;98024.72;2057686;28;20301;-70
2022/04/05 03:43:11;;;;;;;10.82;2.70;;;;;;;3.10;64.84;98024.56;2065750;28;20289;-71
2022/04/05 03:44:15;;;;;;;14.70;3.85;;;;;;;3.23;65.01;98024.72;2066002;28;20639;-70
2022/04/05 03:45:21;;;;;;;14.48;2.53;;;;;;;2.92;64.87;98033.72;2073160;28;20296;-70
2022/04/05 03:46:24;;;;;;;12.45;2.03;;;;;;;2.99;64.86;98022.53;2082498;28;20296;-71
2022/04/05 03:47:28;;;;;;;15.00;2.35;;;;;;;3.14;64.88;98022.81;2089966;28;20307;-70
2022/04/05 03:48:30;;;;;;;14.63;2.50;;;;;;;3.23;64.52;98032.72;2088977;28;20310;-70
2022/04/05 03:49:37;;;;;;;18.67;2.13;;;;;;;3.28;63.96;98035.22;2065480;28;20320;-71
2022/04/05 03:50:41;;;;;;;9.73;2.75;;;;;;;3.38;64.46;98034.91;2058709;28;20297;-71
2022/04/05 03:51:44;;;;;;;13.13;2.88;;;;;;;3.43;63.58;98032.81;2065534;28;20296;-69
2022/04/05 03:52:51;;;;;;;12.32;2.78;;;;;;;3.32;64.41;98046.84;2069381;28;20281;-72
2022/04/05 03:54:02;;;;;;;15.82;2.80;;;;;;;3.06;64.47;98042.34;2076539;28;20301;-72
2022/04/05 03:55:07;;;;;;;11.85;2.20;;;;;;;2.82;65.58;98044.72;2071886;28;20285;-73
2022/04/05 03:56:11;;;;;;;10.70;2.78;;;;;;;3.13;64.54;98045.31;2073215;28;20323;-73
2022/04/05 03:57:13;;;;;;;12.25;2.58;;;;;;;2.88;64.92;98044.25;2081142;28;20675;-72
2022/04/05 03:58:16;;;;;;;10.32;2.83;;;;;;;3.03;64.68;98040.31;2078331;28;20303;-70
2022/04/05 03:59:20;;;;;;;8.35;2.00;;;;;;;3.16;64.62;98052.69;2077672;28;20649;-70
2022/04/05 04:00:24;;;;;;;11.27;2.03;;;;;;;3.19;64.69;98049.41;2063103;28;20304;-71
2022/04/05 04:01:44;;;;;;;12.90;2.38;;;;;;;3.08;64.51;98056.16;2078047;28;20289;-70
2022/04/05 04:02:47;;;;;;;10.93;2.10;;;;;;;3.08;64.51;98053.47;2087432;28;20806;-70
2022/04/05 04:03:52;;;;;;;10.37;2.33;;;;;;;3.19;64.67;98064.66;2080596;28;20035;-70
2022/04/05 04:05:00;;;;;;;8.90;2.15;;;;;;;2.90;65.07;98067.94;2074159;28;21015;-71
2022/04/05 04:06:09;;;;;;;10.00;2.20;;;;;;;2.73;65.95;98068.75;2082338;28;20288;-70
2022/04/05 04:07:16;;;;;;;9.48;2.40;;;;;;;2.84;66.02;98069.22;2088769;28;20295;-70
2022/04/05 04:08:23;;;;;;;12.25;2.03;;;;;;;3.00;65.56;98080.19;2083368;28;20064;-70
2022/04/05 04:09:28;;;;;;;9.40;1.70;;;;;;;3.19;64.72;98075.34;2073293;28;20046;-75
2022/04/05 04:10:34;;;;;;;8.98;1.73;;;;;;;3.04;65.08;98076.59;2073520;28;20673;-72
2022/04/05 04:11:44;;;;;;;11.82;2.30;;;;;;;3.08;64.99;98071.41;2089144;28;20790;-70
2022/04/05 04:12:50;;;;;;;12.15;1.90;;;;;;;3.12;65.03;98081.13;2089423;28;20279;-71
2022/04/05 04:13:54;;;;;;;9.73;1.48;;;;;;;3.33;64.68;98088.50;2080837;28;20280;-71
2022/04/05 04:15:01;;;;;;;9.20;1.50;;;;;;;3.29;64.03;98080.34;2072777;28;20288;-71
2022/04/05 04:16:08;;;;;;;13.68;1.83;;;;;;;3.23;64.55;98080.84;2057328;28;20297;-73
2022/04/05 04:17:14;;;;;;;10.30;1.80;;;;;;;3.36;63.92;98085.97;2066791;28;20285;-74
2022/04/05 04:18:16;;;;;;;6.88;1.65;;;;;;;3.20;64.18;98083.03;2072998;28;20289;-74
2022/04/05 04:19:22;;;;;;;9.30;1.43;;;;;;;3.15;64.08;98090.41;2064118;28;20293;-73
2022/04/05 04:20:27;;;;;;;11.13;1.92;;;;;;;3.10;64.13;98094.03;2064117;28;20820;-73
2022/04/05 04:21:34;;;;;;;4.65;1.40;;;;;;;2.92;65.05;98087.91;2070884;28;20312;-72
2022/04/05 04:22:37;;;;;;;10.67;1.77;;;;;;;3.10;64.70;98095.94;2057103;28;20668;-73
2022/04/05 04:23:42;;;;;;;10.65;1.70;;;;;;;3.12;64.13;98081.13;2072215;28;20737;-72
2022/04/05 04:24:49;;;;;;;8.32;1.38;;;;;;;2.95;64.53;98086.50;2072429;28;20302;-74
2022/04/05 04:25:52;;;;;;;10.57;1.95;;;;;;;3.02;63.86;98086.03;2079246;28;20338;-72
2022/04/05 04:26:54;;;;;;;9.82;1.30;;;;;;;3.18;64.25;98079.88;2071769;28;20831;-75
2022/04/05 04:27:56;;;;;;;7.63;1.70;;;;;;;3.15;64.30;98093.88;2079767;28;20294;-73
2022/04/05 04:29:04;;;;;;;9.45;1.73;;;;;;;2.90;64.84;98092.81;2082065;28;20311;-72
2022/04/05 04:30:08;;;;;;;9.48;1.92;;;;;;;3.14;64.23;98094.19;2095941;28;20278;-71
2022/04/05 04:31:09;;;;;;;10.68;1.73;;;;;;;3.16;63.87;98086.66;2088389;28;20802;-72
2022/04/05 04:32:17;;;;;;;9.07;1.88;;;;;;;2.71;64.85;98093.09;2087436;28;20290;-70
2022/04/05 04:33:22;;;;;;;;;;;;;;;3.05;65.09;98090.75;2097850;28;20309;-71
2022/04/05 04:34:27;;;;;;;8.05;1.88;;;;;;;3.03;65.10;98090.25;2085507;28;20380;-71
2022/04/05 04:35:32;;;;;;;12.25;2.22;;;;;;;3.17;64.45;98094.34;2080715;28;20292;-71
2022/04/05 04:36:43;;;;;;;5.93;1.60;;;;;;;3.17;64.38;98098.91;2095613;28;20658;-72
2022/04/05 04:37:46;;;;;;;8.27;1.90;;;;;;;3.21;64.11;98089.16;2088141;28;20299;-72
2022/04/05 04:38:50;;;;;;;8.27;1.93;;;;;;;3.01;65.04;98101.28;2079051;28;20304;-72
2022/04/05 04:39:54;;;;;;;9.00;2.03;;;;;;;3.22;64.99;98104.09;2078524;28;20280;-72
2022/04/05 04:40:58;;;;;;;9.33;2.30;;;;;;;3.33;63.91;98097.31;2094989;28;20286;-71
2022/04/05 04:42:01;;;;;;;7.60;2.00;;;;;;;3.41;63.89;98104.53;2086707;28;20288;-73
2022/04/05 04:43:04;;;;;;;11.60;2.85;;;;;;;3.37;63.94;98097.47;2079368;28;20284;-73
2022/04/05 04:44:09;;;;;;;12.15;2.30;;;;;;;3.19;64.24;98100.16;2079735;28;20292;-73
2022/04/05 04:45:13;;;;;;;9.18;2.42;;;;;;;3.12;64.28;98097.16;2085597;28;20279;-72
2022/04/05 04:46:16;;;;;;;10.07;2.25;;;;;;;3.27;64.61;98097.78;2063313;28;20301;-74
2022/04/05 04:47:20;;;;;;;14.25;2.60;;;;;;;3.37;63.75;98098.25;2056387;28;20293;-74
2022/04/05 04:48:23;;;;;;;9.00;1.90;;;;;;;3.06;64.23;98098.47;2079102;28;21177;-74
2022/04/05 04:49:29;;;;;;;9.30;2.22;;;;;;;3.16;64.36;98113.38;2094613;28;20283;-72
2022/04/05 04:50:34;;;;;;;7.53;1.92;;;;;;;3.12;64.42;98115.09;2094340;28;20286;-72
2022/04/05 04:51:41;;;;;;;7.67;1.80;;;;;;;2.98;65.73;98112.59;2085500;28;20291;-72
2022/04/05 04:52:44;;;;;;;12.20;1.90;;;;;;;3.17;65.28;98115.72;2078482;28;20311;-73
2022/04/05 04:53:49;;;;;;;9.17;2.00;;;;;;;2.89;65.14;98114.47;2078963;28;20287;-72
2022/04/05 04:54:54;;;;;;;13.68;2.60;;;;;;;3.05;65.84;98126.25;2072390;28;20301;-72
2022/04/05 04:55:56;;;;;;;14.55;2.65;;;;;;;2.99;65.68;98124.84;2080127;28;20280;-73
2022/04/05 04:56:59;;;;;;;16.23;2.33;;;;;;;3.11;65.35;98133.00;2088301;28;20504;-72
2022/04/05 04:58:04;;;;;;;10.32;2.03;;;;;;;3.27;64.67;98135.22;2080572;28;20304;-72
2022/04/05 04:59:06;;;;;;;11.52;2.35;;;;;;;3.37;65.01;98137.56;2081495;28;20280;-72
2022/04/05 05:00:11;;;;;;;13.25;2.20;;;;;;;3.38;64.94;98141.81;2079766;28;20310;-72
2022/04/05 05:01:15;;;;;;;9.13;2.17;;;;;;;3.20;65.05;98149.84;2073196;28;20292;-72
2022/04/05 05:02:18;;;;;;;11.02;2.30;;;;;;;3.23;64.74;98144.97;2088204;28;20292;-72
2022/04/05 05:03:20;;;;;;;14.07;2.50;;;;;;;3.33;63.71;98163.34;2087612;28;20280;-71
2022/04/05 05:04:25;;;;;;;13.68;2.50;;;;;;;3.18;64.26;98153.91;2096115;28;20295;-71
2022/04/05 05:05:29;;;;;;;14.73;2.33;;;;;;;3.16;64.21;98156.13;2087956;28;20275;-72
2022/04/05 05:06:31;;;;;;;8.32;1.90;;;;;;;3.32;64.13;98159.13;2072033;28;20757;-72
2022/04/05 05:07:32;;;;;;;11.57;2.28;;;;;;;3.17;63.79;98158.47;2063824;28;20294;-71
2022/04/05 05:08:35;;;;;;;9.55;2.20;;;;;;;3.31;63.96;98157.53;2071615;28;20277;-72
2022/04/05 05:09:38;;;;;;;10.15;2.05;;;;;;;3.26;63.62;98155.81;2079471;28;20287;-71